Time;durP1;ratioP1;P1;durP2;ratioP2;P2;SDS_P1;SDS_P2;PMS_P1;PMS_P2;Temp;Humidity;BMP_temperature;BMP_pressure;BME280_temperature;BME280_humidity;BME280_pressure;Samples;Min_cycle;Max_cycle;Signal;HPM_P1;HPM_P2
2021/11/02 00:00:13;;;;;;;2.38;1.20;;;;;;;5.65;70.72;98230.09;5007624;28;20041;-53
2021/11/02 00:02:44;;;;;;;4.32;1.45;;;;;;;5.64;70.18;98232.69;5005181;28;20045;-47
2021/11/02 00:05:13;;;;;;;1.90;1.00;;;;;;;5.64;70.79;98232.69;5002269;28;20104;-50
2021/11/02 00:07:40;;;;;;;4.80;1.15;;;;;;;5.62;70.87;98235.28;5006563;28;20049;-49
2021/11/02 00:10:07;;;;;;;3.30;1.30;;;;;;;5.63;70.70;98236.09;5005420;28;20061;-46
2021/11/02 00:12:34;;;;;;;4.10;1.48;;;;;;;5.61;70.26;98233.56;5006712;28;20485;-53
2021/11/02 00:15:01;;;;;;;5.03;1.10;;;;;;;5.59;70.71;98231.88;5006988;28;20046;-53
2021/11/02 00:17:29;;;;;;;4.97;1.35;;;;;;;5.55;71.14;98228.50;5007155;28;20049;-53
2021/11/02 00:19:58;;;;;;;3.55;1.30;;;;;;;5.54;70.98;98226.78;5002443;28;20096;-46
2021/11/02 00:22:27;;;;;;;2.38;0.90;;;;;;;5.55;71.03;98232.78;5007428;28;20042;-56
2021/11/02 00:25:03;;;;;;;4.50;1.60;;;;;;;5.53;70.32;98237.94;5000974;28;20054;-55
2021/11/02 00:27:34;;;;;;;2.45;0.95;;;;;;;5.51;70.29;98231.97;5002347;28;20474;-52
2021/11/02 00:30:01;;;;;;;3.17;1.30;;;;;;;5.49;70.82;98237.13;5004544;28;20054;-52
2021/11/02 00:32:28;;;;;;;2.65;1.08;;;;;;;5.48;70.49;98242.28;5005203;28;20042;-56
2021/11/02 00:34:57;;;;;;;2.75;1.35;;;;;;;5.46;70.23;98241.44;5002154;28;20053;-45
2021/11/02 00:37:25;;;;;;;3.97;1.38;;;;;;;5.42;70.49;98242.34;5009157;28;20046;-51
2021/11/02 00:39:53;;;;;;;3.75;1.80;;;;;;;5.38;70.54;98232.09;5005316;28;20056;-51
2021/11/02 00:42:21;;;;;;;4.00;1.75;;;;;;;5.37;70.76;98238.09;5001296;28;20096;-51
2021/11/02 00:44:55;;;;;;;5.30;1.73;;;;;;;5.36;71.07;98244.13;5007673;28;20045;-50
2021/11/02 00:47:24;;;;;;;6.25;1.63;;;;;;;5.36;70.61;98238.13;5000958;28;20046;-52
2021/11/02 00:49:51;;;;;;;4.68;1.70;;;;;;;5.31;70.73;98245.91;5007124;28;20069;-52
2021/11/02 00:52:18;;;;;;;5.25;2.00;;;;;;;5.29;71.19;98237.34;5001568;28;20046;-52
2021/11/02 00:54:45;;;;;;;4.20;1.13;;;;;;;5.27;70.34;98239.09;5001372;28;20474;-49
2021/11/02 00:57:12;;;;;;;3.83;1.77;;;;;;;5.26;71.12;98237.38;5003188;28;20054;-46
2021/11/02 00:59:39;;;;;;;2.70;1.33;;;;;;;5.24;70.51;98234.81;5006014;28;20068;-54
2021/11/02 01:02:08;;;;;;;4.60;1.48;;;;;;;5.23;70.69;98237.38;5003809;28;20046;-54
2021/11/02 01:04:35;;;;;;;4.03;1.92;;;;;;;5.23;70.59;98238.25;5006093;28;20133;-53
2021/11/02 01:07:03;;;;;;;2.47;1.38;;;;;;;5.24;70.22;98236.56;5006542;28;20056;-52
2021/11/02 01:09:30;;;;;;;3.95;1.23;;;;;;;5.22;70.42;98233.13;5007845;28;20107;-53
2021/11/02 01:11:57;;;;;;;5.55;2.13;;;;;;;5.19;70.61;98236.59;5007815;28;20173;-49
2021/11/02 01:14:25;;;;;;;4.45;1.23;;;;;;;5.16;70.23;98235.78;5007256;28;20054;-55
2021/11/02 01:16:53;;;;;;;2.33;1.30;;;;;;;5.13;70.66;98232.38;5006108;28;20477;-51
2021/11/02 01:19:22;;;;;;;3.97;0.77;;;;;;;5.10;71.08;98229.81;5007542;28;20602;-55
2021/11/02 01:21:50;;;;;;;4.45;1.00;;;;;;;5.10;70.93;98237.53;5008638;28;20050;-48
2021/11/02 01:24:21;;;;;;;3.75;1.55;;;;;;;5.09;70.94;98230.69;5009477;28;20160;-52
2021/11/02 01:26:48;;;;;;;4.85;1.30;;;;;;;5.10;71.13;98236.69;5008440;28;20064;-52
2021/11/02 01:29:16;;;;;;;4.45;1.23;;;;;;;5.09;70.81;98235.81;5009694;28;20417;-53
2021/11/02 01:31:44;;;;;;;6.20;1.23;;;;;;;5.09;71.28;98234.97;5007901;28;20204;-52
2021/11/02 01:34:11;;;;;;;2.80;1.00;;;;;;;5.08;70.58;98236.69;5009551;28;20599;-51
2021/11/02 01:36:39;;;;;;;3.28;1.10;;;;;;;5.06;70.95;98238.41;5006577;28;20046;-52
2021/11/02 01:39:07;;;;;;;4.45;1.25;;;;;;;5.05;71.14;98243.56;5007228;28;20541;-45
2021/11/02 01:41:35;;;;;;;2.83;1.13;;;;;;;5.03;70.69;98240.19;5007018;28;20058;-53
2021/11/02 01:44:03;;;;;;;6.07;1.75;;;;;;;5.00;70.63;98235.94;5009102;28;20049;-55
2021/11/02 01:46:33;;;;;;;2.95;1.30;;;;;;;4.97;70.78;98235.94;5006664;28;20049;-53
2021/11/02 01:49:03;;;;;;;2.95;1.63;;;;;;;4.95;71.09;98238.53;5008618;28;20110;-51
2021/11/02 01:51:31;;;;;;;5.75;1.45;;;;;;;4.94;71.01;98230.84;5006808;28;20045;-52
2021/11/02 01:53:59;;;;;;;4.80;1.10;;;;;;;4.91;71.28;98230.88;5005132;28;21606;-53
2021/11/02 01:56:26;;;;;;;7.95;1.17;;;;;;;4.91;71.22;98230.88;5006339;28;20069;-51
2021/11/02 01:58:53;;;;;;;2.47;1.27;;;;;;;4.91;71.17;98233.44;5005014;28;20067;-49
2021/11/02 02:01:51;;;;;;;2.05;1.05;;;;;;;4.88;70.89;98234.31;5005815;28;20052;-57
2021/11/02 02:04:35;;;;;;;2.70;1.10;;;;;;;4.87;71.78;98230.88;5009619;28;20081;-54
2021/11/02 02:07:34;;;;;;;2.75;1.13;;;;;;;4.86;71.95;98229.19;5003974;28;20509;-48
2021/11/02 02:10:09;;;;;;;5.18;1.67;;;;;;;4.89;71.73;98224.03;5002780;28;20568;-55
2021/11/02 02:12:51;;;;;;;6.00;1.77;;;;;;;4.89;71.37;98225.75;5006204;28;20042;-50
2021/11/02 02:15:35;;;;;;;5.68;1.30;;;;;;;4.88;71.10;98227.47;5003702;28;20504;-51
2021/11/02 02:18:24;;;;;;;5.22;1.13;;;;;;;4.86;71.45;98228.31;5008537;28;20061;-53
2021/11/02 02:21:31;;;;;;;6.13;1.38;;;;;;;4.83;71.95;98231.78;5007049;28;20049;-54
2021/11/02 02:24:37;;;;;;;3.80;1.27;;;;;;;4.82;72.15;98229.22;4998058;28;20100;-53
2021/11/02 02:27:26;;;;;;;5.35;1.85;;;;;;;4.80;71.99;98220.72;5011422;28;20088;-50
2021/11/02 02:29:54;;;;;;;4.10;1.33;;;;;;;4.83;71.65;98228.38;5006595;28;20137;-51
2021/11/02 02:32:26;;;;;;;4.70;1.48;;;;;;;4.82;71.51;98229.22;5010376;28;20528;-52
2021/11/02 02:34:57;;;;;;;5.15;1.65;;;;;;;4.83;71.40;98226.66;5007990;28;20709;-55
2021/11/02 02:37:25;;;;;;;4.78;1.50;;;;;;;4.82;71.39;98230.09;5005927;28;20049;-50
2021/11/02 02:39:55;;;;;;;5.15;1.90;;;;;;;4.79;71.98;98232.66;5003335;28;20140;-46
2021/11/02 02:42:23;;;;;;;4.80;1.67;;;;;;;4.79;71.48;98230.09;5006734;28;20080;-55
2021/11/02 02:44:53;;;;;;;5.32;1.75;;;;;;;4.80;71.87;98234.38;5007977;28;20072;-51
2021/11/02 02:47:22;;;;;;;4.55;1.80;;;;;;;4.80;71.52;98239.50;5005124;28;20050;-52
2021/11/02 02:49:49;;;;;;;3.80;1.77;;;;;;;4.78;71.43;98236.09;5007738;28;20054;-55
2021/11/02 02:52:17;;;;;;;6.22;1.73;;;;;;;4.76;71.62;98235.25;5005835;28;20054;-50
2021/11/02 02:54:45;;;;;;;3.55;2.03;;;;;;;4.74;71.55;98239.56;5003986;28;20108;-55
2021/11/02 02:57:13;;;;;;;4.03;1.52;;;;;;;4.71;71.26;98235.31;5005654;28;20084;-47
2021/11/02 02:59:40;;;;;;;7.00;2.42;;;;;;;4.71;71.29;98234.44;5001852;28;20046;-53
2021/11/02 03:02:12;;;;;;;4.05;2.20;;;;;;;4.69;71.06;98231.06;5009474;28;20049;-48
2021/11/02 03:04:44;;;;;;;7.80;2.08;;;;;;;4.66;71.48;98237.03;5005621;28;20038;-48
2021/11/02 03:07:11;;;;;;;3.90;1.52;;;;;;;4.65;71.54;98229.34;5009585;28;20585;-45
2021/11/02 03:09:42;;;;;;;4.93;1.67;;;;;;;4.64;71.49;98233.66;5002702;28;21176;-46
2021/11/02 03:12:10;;;;;;;3.70;1.65;;;;;;;4.62;72.14;98233.66;5007090;28;20085;-51
2021/11/02 03:14:54;;;;;;;3.75;1.45;;;;;;;4.61;71.79;98234.53;5005706;28;20042;-48
2021/11/02 03:17:26;;;;;;;9.35;1.80;;;;;;;4.62;71.59;98241.38;5004456;28;20080;-57
2021/11/02 03:20:30;;;;;;;5.72;1.95;;;;;;;4.62;71.40;98241.38;5005100;28;20053;-49
2021/11/02 03:48:00;;;;;;;4.78;1.95;;;;;;;4.41;71.75;98256.88;5004668;28;20725;-50
2021/11/02 03:48:18;;;;;;;5.63;1.92;;;;;;;4.40;72.12;98256.06;5005737;28;20547;-53
2021/11/02 03:51:04;;;;;;;5.75;2.35;;;;;;;4.42;71.72;98258.63;5008591;28;20065;-49
2021/11/02 03:56:34;;;;;;;4.32;1.58;;;;;;;4.42;71.37;98261.19;5018483;28;20575;-51
2021/11/02 03:59:39;;;;;;;5.43;2.33;;;;;;;4.42;71.75;98276.56;5006475;28;20512;-55
2021/11/02 04:27:33;;;;;;;3.47;1.67;;;;;;;4.32;71.73;98274.03;5004315;28;20049;-51
2021/11/02 04:48:23;;;;;;;4.03;1.67;;;;;;;4.23;71.72;98295.44;5004992;28;20054;-51
2021/11/02 04:58:24;;;;;;;4.80;1.88;;;;;;;4.28;72.11;98303.09;5008047;28;20053;-52
2021/11/02 05:20:03;;;;;;;7.97;2.40;;;;;;;4.23;71.54;98302.28;5006290;28;20049;-53
2021/11/02 05:48:51;;;;;;;3.72;1.63;;;;;;;4.05;72.19;98316.88;5007671;28;20053;-49
2021/11/02 05:51:05;;;;;;;5.10;2.03;;;;;;;4.02;71.84;98306.63;5004838;28;20054;-48
2021/11/02 05:56:24;;;;;;;6.53;1.98;;;;;;;3.97;72.22;98319.47;5005752;28;20494;-47
2021/11/02 05:59:15;;;;;;;7.88;2.33;;;;;;;3.95;72.01;98310.09;5005781;28;20088;-51
2021/11/02 06:01:52;;;;;;;5.75;2.40;;;;;;;3.94;71.99;98313.50;5007585;28;20049;-51
2021/11/02 06:04:49;;;;;;;5.68;2.83;;;;;;;3.93;71.97;98317.78;5006021;28;20077;-51
2021/11/02 06:08:53;;;;;;;7.38;2.38;;;;;;;3.89;72.75;98316.09;5008335;28;20045;-50
2021/11/02 06:10:53;;;;;;;5.88;2.60;;;;;;;3.91;72.30;98318.63;4997803;28;20049;-50
2021/11/02 06:30:27;;;;;;;8.02;3.05;;;;;;;3.86;72.75;98332.31;5014558;28;20430;-45
2021/11/02 06:33:20;;;;;;;8.18;2.55;;;;;;;3.86;72.47;98334.88;5006146;28;20042;-47
2021/11/02 06:36:03;;;;;;;10.07;2.42;;;;;;;3.87;72.60;98335.72;5001251;28;20046;-48
2021/11/02 06:39:13;;;;;;;5.60;2.55;;;;;;;3.85;72.64;98335.72;5002095;28;20165;-53
2021/11/02 06:44:47;;;;;;;7.30;2.35;;;;;;;3.82;71.97;98335.75;5000764;28;20050;-52
2021/11/02 06:47:54;;;;;;;6.65;2.20;;;;;;;3.79;72.77;98338.34;5004396;28;20481;-49
2021/11/02 06:53:04;;;;;;;9.38;2.92;;;;;;;3.78;72.74;98346.84;5003336;28;20050;-51
2021/11/02 06:55:54;;;;;;;6.68;2.58;;;;;;;3.79;72.84;98356.25;5007136;28;20053;-50
2021/11/02 06:58:41;;;;;;;10.77;2.90;;;;;;;3.81;73.10;98353.66;5008580;28;20054;-53
2021/11/02 07:18:10;;;;;;;7.03;2.53;;;;;;;3.95;72.70;98374.16;4988705;28;20518;-53
2021/11/02 07:20:45;;;;;;;8.05;2.72;;;;;;;3.99;73.24;98365.59;5005513;28;20050;-49
2021/11/02 07:23:22;;;;;;;9.82;3.05;;;;;;;4.01;72.73;98371.56;5005238;28;20050;-47
2021/11/02 07:26:15;;;;;;;7.35;2.85;;;;;;;4.05;72.93;98370.69;5003355;28;20050;-50
2021/11/02 07:29:29;;;;;;;8.75;3.35;;;;;;;4.08;73.55;98368.13;5002005;28;20054;-49
2021/11/02 08:45:44;;;;;;;6.07;3.05;;;;;;;18.97;50.86;98407.69;4994967;28;20046;-48
2021/11/02 08:48:11;;;;;;;5.72;3.38;;;;;;;19.68;49.08;98401.38;4984814;28;20140;-49
2021/11/02 08:50:42;;;;;;;8.18;3.47;;;;;;;20.24;47.73;98413.44;4997935;28;20464;-53
2021/11/02 08:53:12;;;;;;;7.28;3.67;;;;;;;20.80;46.19;98414.78;4998715;28;20069;-52
2021/11/02 08:55:42;;;;;;;6.95;2.53;;;;;;;21.22;44.51;98412.75;4996278;28;20049;-56
2021/11/02 08:58:08;;;;;;;;;;;;;;;21.42;45.39;98416.56;5000764;28;20041;-53
2021/11/02 09:00:36;;;;;;;8.70;2.83;;;;;;;22.00;43.86;98415.78;4995063;28;19925;-50
2021/11/02 09:03:11;;;;;;;8.68;4.07;;;;;;;22.33;41.00;98424.66;5002860;28;20062;-55
2021/11/02 09:05:38;;;;;;;5.00;2.97;;;;;;;22.77;40.93;98417.84;5002798;28;20095;-53
2021/11/02 09:08:10;;;;;;;6.43;3.42;;;;;;;23.14;39.99;98416.69;5008808;28;20050;-56
2021/11/02 09:10:41;;;;;;;6.10;3.08;;;;;;;23.49;40.18;98420.88;5003813;28;20469;-48
2021/11/02 09:13:10;;;;;;;5.82;3.22;;;;;;;23.84;38.83;98419.75;5002028;28;20054;-55
2021/11/02 09:15:39;;;;;;;;;;;;;;;24.02;39.17;98424.44;4984815;28;20042;-48
2021/11/02 09:18:08;;;;;;;6.80;2.65;;;;;;;24.47;37.66;98419.78;5004230;28;20339;-51
2021/11/02 09:20:36;;;;;;;6.40;2.80;;;;;;;24.70;37.60;98416.94;5002963;28;20592;-51
2021/11/02 09:23:05;;;;;;;4.20;2.42;;;;;;;24.98;36.62;98422.47;5001695;28;20064;-52
2021/11/02 09:25:33;;;;;;;6.43;2.75;;;;;;;25.08;36.08;98418.03;5005794;28;20061;-54
2021/11/02 09:28:00;;;;;;;7.25;2.83;;;;;;;25.29;35.97;98414.41;5009092;28;20092;-49
2021/11/02 09:30:28;;;;;;;7.75;3.30;;;;;;;25.53;35.77;98416.63;5007591;28;20062;-52
2021/11/02 09:32:56;;;;;;;5.68;3.53;;;;;;;25.81;34.81;98418.59;5007681;28;20076;-50
2021/11/02 09:35:26;;;;;;;5.63;2.58;;;;;;;26.07;34.26;98417.94;5006747;28;20050;-45
2021/11/02 09:38:06;;;;;;;;;;;;;;;26.17;34.99;98423.22;5005318;28;20089;-53
2021/11/02 09:41:08;;;;;;;6.10;2.90;;;;;;;26.46;32.82;98410.84;5005176;28;19983;-49
2021/11/02 09:43:53;;;;;;;;;;;;;;;26.55;34.69;98412.63;5003861;28;20121;-54
2021/11/02 09:47:00;;;;;;;5.18;2.80;;;;;;;26.86;33.60;98414.13;5000235;28;19925;-49
2021/11/02 09:50:01;;;;;;;9.23;2.90;;;;;;;27.04;32.69;98414.19;4996482;28;20054;-53
2021/11/02 09:53:02;;;;;;;3.75;2.35;;;;;;;27.13;31.14;98401.81;5005504;28;20425;-53
2021/11/02 09:56:09;;;;;;;6.70;2.72;;;;;;;27.34;31.69;98409.47;5009842;28;20895;-45
2021/11/02 09:59:15;;;;;;;4.88;3.05;;;;;;;27.45;31.17;98417.22;4994939;28;20387;-50
2021/11/02 10:02:11;;;;;;;5.40;2.95;;;;;;;27.49;31.00;98406.28;5003407;28;20401;-51
2021/11/02 10:05:08;;;;;;;6.45;2.88;;;;;;;27.58;31.08;98406.19;5003213;28;20050;-57
2021/11/02 10:08:01;;;;;;;5.47;2.83;;;;;;;27.59;30.95;98412.31;5007554;28;20678;-52
2021/11/02 10:10:44;;;;;;;5.03;2.38;;;;;;;27.44;29.83;98404.06;5004308;28;20049;-54
2021/11/02 10:13:30;;;;;;;5.90;2.88;;;;;;;26.90;29.85;98408.38;5007815;28;20466;-54
2021/11/02 10:16:10;;;;;;;6.35;2.85;;;;;;;26.30;32.24;98412.31;5005328;28;20624;-56
2021/11/02 10:19:13;;;;;;;4.68;2.75;;;;;;;25.97;32.52;98406.53;5006559;28;20061;-54
2021/11/02 10:22:19;;;;;;;4.32;2.00;;;;;;;25.86;32.36;98411.03;5008292;28;20050;-56
2021/11/02 10:25:12;;;;;;;5.93;2.55;;;;;;;25.38;32.22;98408.28;4992920;28;20050;-57
2021/11/02 10:28:22;;;;;;;3.42;1.90;;;;;;;24.72;32.24;98409.72;4990833;28;20081;-51
2021/11/02 10:30:56;;;;;;;4.38;2.10;;;;;;;23.92;33.44;98410.31;5005840;28;20512;-56
2021/11/02 10:33:33;;;;;;;6.20;2.85;;;;;;;23.16;34.12;98405.03;4991714;28;20064;-55
2021/11/02 10:36:32;;;;;;;4.97;2.53;;;;;;;22.41;34.99;98415.31;5006748;28;20405;-55
2021/11/02 10:39:21;;;;;;;6.50;2.38;;;;;;;21.60;35.94;98410.88;5020133;28;20046;-52
2021/11/02 10:42:26;;;;;;;7.53;2.30;;;;;;;20.79;37.39;98413.13;5003952;28;20970;-52
2021/11/02 10:45:16;;;;;;;4.65;2.42;;;;;;;20.29;39.17;98405.22;5003984;28;20632;-52
2021/11/02 10:48:04;;;;;;;5.15;2.00;;;;;;;19.85;39.56;98402.03;5002265;28;20076;-51
2021/11/02 10:50:37;;;;;;;5.40;1.75;;;;;;;19.42;39.93;98409.22;5005839;28;20054;-51
2021/11/02 10:53:08;;;;;;;5.30;2.13;;;;;;;18.97;40.44;98407.69;5007066;28;20057;-54
2021/11/02 10:55:49;;;;;;;4.00;1.70;;;;;;;18.52;41.24;98413.09;5006396;28;20104;-50
2021/11/02 10:58:32;;;;;;;4.05;1.42;;;;;;;18.16;42.46;98412.63;5007490;28;20135;-53
2021/11/02 11:01:05;;;;;;;5.40;2.03;;;;;;;17.87;42.45;98412.59;5003229;28;20485;-46
2021/11/02 11:03:34;;;;;;;8.13;1.90;;;;;;;17.70;43.28;98416.22;5021208;28;20069;-47
2021/11/02 11:06:04;;;;;;;5.13;1.90;;;;;;;17.55;43.42;98415.31;5003377;28;20057;-52
2021/11/02 11:08:35;;;;;;;6.38;2.25;;;;;;;17.34;44.23;98410.38;5005519;28;20070;-52
2021/11/02 11:11:06;;;;;;;5.35;1.70;;;;;;;17.00;44.76;98412.25;4988566;28;20132;-53
2021/11/02 11:13:36;;;;;;;6.90;1.73;;;;;;;16.77;45.21;98411.75;5004272;28;20057;-53
2021/11/02 11:16:24;;;;;;;6.32;1.83;;;;;;;16.47;45.54;98409.84;5002850;28;20085;-48
2021/11/02 11:18:54;;;;;;;5.72;1.85;;;;;;;16.25;45.73;98411.00;5003500;28;20092;-53
2021/11/02 11:21:24;;;;;;;4.93;1.20;;;;;;;16.05;46.28;98415.50;5003864;28;20054;-54
2021/11/02 11:24:13;;;;;;;4.65;1.63;;;;;;;15.76;46.64;98412.56;5002682;28;21119;-55
2021/11/02 11:26:47;;;;;;;3.63;1.38;;;;;;;15.66;47.27;98420.88;5002397;28;20049;-52
2021/11/02 11:29:34;;;;;;;4.38;1.50;;;;;;;15.48;47.78;98421.78;5004277;28;20057;-50
2021/11/02 11:32:01;;;;;;;3.50;1.27;;;;;;;15.41;48.12;98422.06;5005962;28;20060;-53
2021/11/02 11:34:33;;;;;;;3.17;1.55;;;;;;;15.31;48.43;98415.63;5006145;28;20053;-50
2021/11/02 11:37:01;;;;;;;2.22;1.00;;;;;;;15.08;48.33;98424.56;5001452;28;20057;-45
2021/11/02 11:39:29;;;;;;;4.47;0.95;;;;;;;14.95;48.29;98424.28;5005092;28;20072;-53
2021/11/02 11:41:57;;;;;;;2.53;1.02;;;;;;;14.82;48.60;98422.25;5005396;28;20062;-48
2021/11/02 11:44:27;;;;;;;5.50;1.10;;;;;;;14.66;49.34;98424.72;5005207;28;20650;-48
2021/11/02 11:47:12;;;;;;;4.82;0.98;;;;;;;14.51;48.74;98427.09;5003922;28;20061;-54
2021/11/02 11:49:44;;;;;;;3.20;1.10;;;;;;;14.46;49.48;98428.22;4999259;28;20058;-49
2021/11/02 11:52:11;;;;;;;3.63;0.90;;;;;;;14.51;49.49;98428.84;4999574;28;20061;-53
2021/11/02 11:54:49;;;;;;;2.70;0.80;;;;;;;14.42;49.62;98426.66;5001481;28;20049;-53
2021/11/02 11:57:30;;;;;;;3.17;0.90;;;;;;;14.35;49.01;98421.72;5003672;28;20045;-54
2021/11/02 12:00:01;;;;;;;4.68;0.95;;;;;;;14.33;50.21;98418.34;4999709;28;20068;-52
2021/11/02 12:02:41;;;;;;;2.78;0.65;;;;;;;14.31;49.96;98414.97;5009399;28;20124;-49
2021/11/02 12:05:17;;;;;;;4.35;1.13;;;;;;;14.26;50.23;98422.13;5001735;28;20140;-48
2021/11/02 12:08:15;;;;;;;4.88;0.70;;;;;;;14.14;50.13;98419.16;5001166;28;20225;-51
2021/11/02 12:10:45;;;;;;;2.10;0.68;;;;;;;14.12;50.43;98426.19;4999244;28;20069;-52
2021/11/02 12:13:13;;;;;;;3.20;1.33;;;;;;;14.00;50.92;98426.72;4998659;28;20508;-47
2021/11/02 12:16:10;;;;;;;2.65;0.80;;;;;;;13.77;50.36;98423.31;5005950;28;20054;-50
2021/11/02 12:18:42;;;;;;;3.67;0.90;;;;;;;13.68;50.98;98421.13;5005132;28;20049;-53
2021/11/02 12:21:19;;;;;;;5.30;0.90;;;;;;;13.58;51.41;98424.09;5003179;28;20104;-48
2021/11/02 12:23:49;;;;;;;5.72;0.85;;;;;;;13.60;51.51;98417.09;5005252;28;20092;-54
2021/11/02 12:26:17;;;;;;;3.40;1.25;;;;;;;13.55;51.86;98415.59;5006208;28;20048;-54
2021/11/02 12:28:47;;;;;;;2.22;0.70;;;;;;;13.57;51.20;98425.00;5009994;28;20042;-48
2021/11/02 12:31:19;;;;;;;1.33;0.80;;;;;;;13.60;51.19;98424.88;5001419;28;20061;-48
2021/11/02 12:33:54;;;;;;;4.03;1.05;;;;;;;13.49;51.92;98421.88;5002782;28;20136;-49
2021/11/02 12:36:23;;;;;;;3.00;0.90;;;;;;;13.40;51.59;98417.84;5002711;28;20042;-49
2021/11/02 12:38:59;;;;;;;3.53;1.10;;;;;;;13.33;52.00;98414.66;5002299;28;20505;-49
2021/11/02 12:41:27;;;;;;;2.65;0.82;;;;;;;13.35;52.68;98410.22;5002802;28;20064;-53
2021/11/02 12:44:12;;;;;;;2.20;0.70;;;;;;;13.37;52.33;98413.63;5004717;28;20119;-47
2021/11/02 12:46:44;;;;;;;3.55;0.70;;;;;;;13.55;52.27;98418.19;4983115;28;20061;-50
2021/11/02 12:49:20;;;;;;;2.70;0.93;;;;;;;13.61;52.13;98421.38;5003257;28;20058;-50
2021/11/02 12:51:51;;;;;;;2.95;1.10;;;;;;;13.54;51.38;98413.91;5005398;28;20470;-50
2021/11/02 12:54:21;;;;;;;3.83;1.30;;;;;;;13.39;52.08;98413.56;5004852;28;20050;-54
2021/11/02 12:56:57;;;;;;;2.97;1.00;;;;;;;13.36;52.80;98411.94;5002512;28;20146;-51
2021/11/02 12:59:29;;;;;;;6.55;0.77;;;;;;;13.60;51.36;98414.47;5005695;28;20053;-53
2021/11/02 13:01:59;;;;;;;3.92;1.05;;;;;;;13.74;52.04;98410.44;5006695;28;20057;-57
2021/11/02 13:04:35;;;;;;;3.92;1.95;;;;;;;13.72;51.28;98404.47;5008320;28;20061;-56
2021/11/02 13:07:10;;;;;;;3.60;1.13;;;;;;;13.69;52.15;98407.19;5007228;28;20056;-53
2021/11/02 13:09:37;;;;;;;17.60;8.02;;;;;;;13.61;51.93;98410.97;5008651;28;20050;-56
2021/11/02 13:12:08;;;;;;;4.82;1.00;;;;;;;13.51;52.64;98403.63;5012080;28;20068;-46
2021/11/02 13:14:41;;;;;;;5.22;1.48;;;;;;;13.45;52.54;98402.06;5007559;28;20100;-53
2021/11/02 13:17:10;;;;;;;4.57;1.90;;;;;;;13.46;53.66;98408.97;5006217;28;20700;-55
2021/11/02 13:19:40;;;;;;;;;;;;;;;13.36;52.22;98405.91;5010077;28;20445;-51
2021/11/02 13:22:20;;;;;;;3.28;1.00;;;;;;;13.46;52.97;98408.97;5008370;28;20325;-49
2021/11/02 13:25:09;;;;;;;6.25;1.38;;;;;;;13.43;52.24;98406.47;5011186;28;20068;-53
2021/11/02 13:27:54;;;;;;;4.65;1.50;;;;;;;13.42;52.86;98405.66;5007432;28;20104;-49
2021/11/02 13:30:42;;;;;;;5.00;0.45;;;;;;;13.32;52.69;98405.19;5005712;28;20053;-51
2021/11/02 13:33:20;;;;;;;2.42;1.02;;;;;;;13.15;53.03;98407.59;5005372;28;20057;-52
2021/11/02 13:35:51;;;;;;;2.17;0.70;;;;;;;13.01;53.33;98403.81;5005582;28;20038;-51
2021/11/02 13:38:36;;;;;;;1.83;1.45;;;;;;;12.85;53.37;98407.00;5008122;28;20053;-46
2021/11/02 13:41:16;;;;;;;2.03;0.50;;;;;;;12.71;53.97;98409.28;5012206;28;20089;-51
2021/11/02 13:43:46;;;;;;;3.13;0.80;;;;;;;12.66;53.08;98403.41;5004169;28;20050;-54
2021/11/02 13:46:16;;;;;;;;;;;;;;;12.44;53.27;98406.81;5007564;28;20609;-48
2021/11/02 13:48:43;;;;;;;4.93;0.68;;;;;;;12.47;53.77;98407.53;5005152;28;19925;-50
2021/11/02 13:51:12;;;;;;;2.90;0.35;;;;;;;12.47;54.06;98411.91;5004817;28;20046;-50
2021/11/02 13:53:40;;;;;;;3.13;0.55;;;;;;;12.45;54.35;98405.91;5007486;28;20072;-45
2021/11/02 13:56:18;;;;;;;4.75;0.60;;;;;;;12.36;53.51;98414.03;5005998;28;20041;-54
2021/11/02 13:58:51;;;;;;;5.28;1.42;;;;;;;12.34;54.49;98407.13;5007379;28;20038;-55
2021/11/02 14:01:27;;;;;;;1.65;0.73;;;;;;;12.28;53.75;98409.97;5004884;28;20050;-52
2021/11/02 14:04:05;;;;;;;3.17;0.63;;;;;;;12.21;54.80;98408.50;5006016;28;20072;-52
2021/11/02 14:06:35;;;;;;;1.00;0.30;;;;;;;12.10;54.17;98402.84;5004137;28;20053;-51
2021/11/02 14:09:05;;;;;;;4.60;0.60;;;;;;;12.01;54.08;98399.63;5009559;28;20057;-47
2021/11/02 14:11:34;;;;;;;2.78;0.28;;;;;;;11.98;55.03;98398.88;5005524;28;20046;-51
2021/11/02 14:14:03;;;;;;;1.92;0.60;;;;;;;11.94;55.05;98400.75;5005897;28;20572;-53
2021/11/02 14:16:37;;;;;;;4.05;0.50;;;;;;;11.92;54.69;98394.78;5008499;28;20485;-53
2021/11/02 14:19:04;;;;;;;4.05;0.93;;;;;;;11.96;54.78;98401.56;5003968;28;20050;-49
2021/11/02 14:21:47;;;;;;;2.97;0.52;;;;;;;11.94;54.82;98400.75;5006578;28;21344;-49
2021/11/02 14:24:28;;;;;;;3.45;0.90;;;;;;;11.99;54.47;98404.00;5009199;28;20046;-51
2021/11/02 14:26:56;;;;;;;1.95;0.90;;;;;;;11.98;54.53;98404.06;5006526;28;20133;-46
2021/11/02 14:29:45;;;;;;;2.88;0.43;;;;;;;11.87;55.52;98401.84;5005738;28;20057;-53
2021/11/02 14:32:51;;;;;;;1.83;0.30;;;;;;;11.79;54.73;98405.56;4989237;28;20050;-52
2021/11/02 14:35:37;;;;;;;2.15;0.55;;;;;;;11.71;55.49;98397.19;4993585;28;20057;-47
2021/11/02 14:38:08;;;;;;;1.83;0.52;;;;;;;11.71;55.56;98397.19;5001920;28;20116;-53
2021/11/02 14:40:37;;;;;;;3.00;0.40;;;;;;;11.64;54.51;98400.88;5005873;28;20103;-54
2021/11/02 14:43:23;;;;;;;2.17;1.38;;;;;;;11.53;55.20;98404.72;5006486;28;20525;-50
2021/11/02 14:45:56;;;;;;;1.67;0.70;;;;;;;11.47;55.28;98399.72;5005984;28;20061;-50
2021/11/02 14:48:30;;;;;;;5.22;0.60;;;;;;;11.40;55.72;98403.41;5004993;28;20050;-53
2021/11/02 14:50:58;;;;;;;5.55;0.82;;;;;;;11.38;55.39;98403.44;5006389;28;20046;-49
2021/11/02 14:53:30;;;;;;;1.58;0.73;;;;;;;11.34;56.24;98408.81;5001660;28;20100;-52
2021/11/02 14:56:33;;;;;;;2.83;0.98;;;;;;;11.24;55.47;98414.25;5009241;28;20470;-49
2021/11/02 14:59:02;;;;;;;4.15;0.63;;;;;;;11.27;55.83;98429.72;4999001;28;20057;-44
2021/11/02 15:02:03;;;;;;;2.60;0.55;;;;;;;11.19;56.24;98427.34;5000761;28;20404;-51
2021/11/02 15:04:31;;;;;;;2.33;0.70;;;;;;;11.20;56.80;98425.63;4994255;28;20100;-49
2021/11/02 15:07:02;;;;;;;2.63;1.00;;;;;;;11.15;56.56;98435.28;5000718;28;20430;-51
2021/11/02 15:09:32;;;;;;;1.30;0.50;;;;;;;11.10;56.15;98431.97;5004614;28;20057;-53
2021/11/02 15:11:59;;;;;;;1.25;0.55;;;;;;;11.04;56.43;98428.69;5004651;28;20045;-47
2021/11/02 15:14:30;;;;;;;1.80;0.60;;;;;;;11.02;56.30;98424.47;5005724;28;20046;-48
2021/11/02 15:17:00;;;;;;;1.63;0.55;;;;;;;10.98;56.75;98426.28;5000785;28;20049;-51
2021/11/02 15:19:38;;;;;;;1.45;0.70;;;;;;;10.97;56.98;98416.81;4997654;28;20412;-57
2021/11/02 15:22:08;;;;;;;;;;;;;;;10.85;57.39;98419.78;5005068;28;20038;-54
2021/11/02 15:24:38;;;;;;;2.97;0.30;;;;;;;10.97;56.75;98426.34;5006276;28;20421;-53
2021/11/02 15:27:11;;;;;;;;;;;;;;;10.85;57.12;98414.59;5004239;28;20057;-52
2021/11/02 15:29:44;;;;;;;5.50;0.98;;;;;;;10.97;57.30;98424.59;5006927;28;19976;-51
2021/11/02 15:32:15;;;;;;;2.83;0.30;;;;;;;10.98;57.06;98423.69;5006167;28;20481;-52
2021/11/02 15:34:46;;;;;;;2.50;0.50;;;;;;;10.97;57.06;98429.78;5005389;28;20042;-49
2021/11/02 15:37:19;;;;;;;3.13;0.70;;;;;;;10.91;57.07;98417.03;5003996;28;20379;-50
2021/11/02 15:39:55;;;;;;;2.53;0.43;;;;;;;10.86;57.12;98424.06;5003088;28;20120;-50
2021/11/02 15:42:32;;;;;;;7.57;0.77;;;;;;;10.77;57.71;98423.44;5000388;28;20104;-54
2021/11/02 15:45:00;;;;;;;;;;;;;;;10.57;57.58;98423.19;5003284;28;20510;-49
2021/11/02 15:47:28;;;;;;;2.15;0.47;;;;;;;10.61;57.63;98419.63;5003442;28;20384;-48
2021/11/02 15:50:02;;;;;;;3.38;0.47;;;;;;;10.54;57.37;98429.31;5002637;28;20046;-54
2021/11/02 15:52:31;;;;;;;3.08;0.90;;;;;;;10.47;56.64;98428.63;5006548;28;20080;-47
2021/11/02 15:55:02;;;;;;;2.92;0.30;;;;;;;10.39;56.65;98430.56;5000055;28;20054;-53
2021/11/02 15:57:39;;;;;;;1.27;0.73;;;;;;;10.28;56.72;98433.44;5002938;28;20049;-47
2021/11/02 16:00:07;;;;;;;0.90;0.50;;;;;;;10.23;57.72;98435.31;4996107;28;20107;-50
2021/11/02 16:02:36;;;;;;;1.35;0.32;;;;;;;10.16;57.81;98432.03;5003552;28;20054;-56
2021/11/02 16:05:08;;;;;;;2.15;0.43;;;;;;;10.10;57.34;98434.81;5005022;28;20045;-49
2021/11/02 16:07:34;;;;;;;0.95;0.22;;;;;;;10.02;57.65;98443.59;5002412;28;20046;-51
2021/11/02 16:10:04;;;;;;;3.10;0.60;;;;;;;9.97;57.35;98445.44;5001094;28;20068;-47
2021/11/02 16:12:36;;;;;;;1.35;0.75;;;;;;;9.91;57.58;98440.44;5002262;28;20065;-55
2021/11/02 16:15:15;;;;;;;1.70;0.75;;;;;;;9.82;58.42;98441.53;5002483;28;20064;-54
2021/11/02 16:17:48;;;;;;;2.95;0.77;;;;;;;9.76;58.43;98442.53;5000528;28;20042;-49